createdAt,value
2023-05-08T00:00:57.823Z,23.8854
2023-05-08T00:01:58.909Z,23.8415
2023-05-08T00:03:00.213Z,23.8413
2023-05-08T00:04:01.194Z,23.8744
2023-05-08T00:05:02.275Z,23.8618
2023-05-08T00:06:03.312Z,23.8573
2023-05-08T00:07:04.416Z,23.9043
2023-05-08T00:08:05.579Z,23.9280
2023-05-08T00:09:06.637Z,23.9442
2023-05-08T00:10:07.745Z,23.9189
2023-05-08T00:11:08.850Z,23.8735
2023-05-08T00:12:09.941Z,23.8764
2023-05-08T00:13:11.078Z,23.9148
2023-05-08T00:14:12.123Z,23.8797
2023-05-08T00:15:13.234Z,23.8811
2023-05-08T00:16:14.398Z,23.9043
2023-05-08T00:17:15.427Z,23.8877
2023-05-08T00:18:16.521Z,23.8754
2023-05-08T00:19:17.615Z,23.8688
2023-05-08T00:20:18.721Z,23.8951
2023-05-08T00:21:19.834Z,23.9360
2023-05-08T00:22:20.930Z,23.9269
2023-05-08T00:23:22.047Z,23.9031
2023-05-08T00:24:23.111Z,23.9339
2023-05-08T00:25:24.211Z,23.9495
2023-05-08T00:26:25.325Z,23.9637
2023-05-08T00:27:26.402Z,23.9637
2023-05-08T00:28:27.514Z,23.9783
2023-05-08T00:29:28.606Z,23.9588
2023-05-08T00:30:29.733Z,23.9337
2023-05-08T00:31:30.823Z,23.9076
2023-05-08T00:32:31.899Z,23.8805
2023-05-08T00:33:33.041Z,23.8838
2023-05-08T00:34:34.098Z,23.8863
2023-05-08T00:35:35.193Z,23.8908
2023-05-08T00:36:36.274Z,23.9101
2023-05-08T00:37:37.385Z,23.9315
2023-05-08T00:38:38.513Z,23.9179
2023-05-08T00:39:39.587Z,23.9516
2023-05-08T00:40:40.695Z,23.9594
2023-05-08T00:41:41.789Z,23.9518
2023-05-08T00:42:42.875Z,23.9639
2023-05-08T00:43:44.005Z,23.9840
2023-05-08T00:44:45.075Z,23.9988
2023-05-08T00:45:46.242Z,24.0430
2023-05-08T00:46:47.343Z,24.0432
2023-05-08T00:47:48.398Z,24.0177
2023-05-08T00:48:49.550Z,23.9879
2023-05-08T00:49:50.582Z,23.9775
2023-05-08T00:50:51.682Z,23.9703
2023-05-08T00:51:52.800Z,23.9923
2023-05-08T00:52:53.886Z,24.0231
2023-05-08T00:53:55.019Z,24.0450
2023-05-08T00:54:56.060Z,24.0389
2023-05-08T00:55:57.303Z,24.0054
2023-05-08T00:56:58.295Z,23.9715
2023-05-08T00:57:59.404Z,23.9713
2023-05-08T00:59:00.496Z,23.9734
2023-05-08T01:00:01.574Z,24.0099
2023-05-08T01:01:02.707Z,24.0350
2023-05-08T01:02:03.775Z,24.0504
2023-05-08T01:03:04.946Z,24.0485
2023-05-08T01:04:05.992Z,24.0594
2023-05-08T01:05:07.062Z,24.0549
2023-05-08T01:06:08.207Z,24.0516
2023-05-08T01:07:09.293Z,24.0395
2023-05-08T01:08:10.364Z,23.9816
2023-05-08T01:09:11.485Z,23.9869
2023-05-08T01:10:12.770Z,23.9836
2023-05-08T01:11:13.648Z,23.9596
2023-05-08T01:12:14.765Z,23.9775
2023-05-08T01:13:15.884Z,23.9578
2023-05-08T01:14:16.958Z,23.9596
2023-05-08T01:15:18.051Z,23.9592
2023-05-08T01:16:19.219Z,23.9631
2023-05-08T01:17:20.276Z,23.9668
2023-05-08T01:18:21.336Z,23.9847
2023-05-08T01:19:22.458Z,23.9701
2023-05-08T01:20:23.527Z,23.9709
2023-05-08T01:21:24.643Z,23.9349
2023-05-08T01:22:25.727Z,23.9719
2023-05-08T01:23:26.826Z,23.9980
2023-05-08T01:24:27.920Z,24.0188
2023-05-08T01:25:29.060Z,24.0418
2023-05-08T01:26:30.142Z,24.0627
2023-05-08T01:27:31.216Z,24.0670
2023-05-08T01:28:32.319Z,24.0892
2023-05-08T01:29:33.800Z,24.1188
2023-05-08T01:30:34.508Z,24.1210
2023-05-08T01:31:35.612Z,24.0911
2023-05-08T01:32:36.764Z,24.0539
2023-05-08T01:33:37.859Z,24.0276
2023-05-08T01:34:38.954Z,23.9859
2023-05-08T01:35:40.005Z,23.9360
2023-05-08T01:36:41.107Z,23.9226
2023-05-08T01:37:42.215Z,23.9528
2023-05-08T01:38:43.301Z,23.9902
2023-05-08T01:39:44.404Z,23.9982
2023-05-08T01:40:45.488Z,23.9900
2023-05-08T01:41:46.630Z,23.9937
2023-05-08T01:42:47.706Z,23.9672
2023-05-08T01:43:48.815Z,23.9294
2023-05-08T01:44:49.905Z,23.9046
2023-05-08T01:45:50.999Z,23.8943
2023-05-08T01:46:52.198Z,23.8976
2023-05-08T01:47:53.189Z,23.8965
2023-05-08T01:48:54.292Z,23.9181
2023-05-08T01:49:55.385Z,23.9629
2023-05-08T01:50:56.474Z,23.9935
2023-05-08T01:51:57.581Z,23.9857
2023-05-08T01:52:58.679Z,24.0048
2023-05-08T01:53:59.801Z,24.0222
2023-05-08T01:55:00.874Z,24.0146
2023-05-08T01:56:01.949Z,24.0233
2023-05-08T01:57:03.058Z,23.9892
2023-05-08T01:58:04.162Z,23.9836
2023-05-08T01:59:05.237Z,23.9594
2023-05-08T02:00:06.346Z,23.9631
2023-05-08T02:01:07.528Z,23.9826
2023-05-08T02:02:08.589Z,24.0255
2023-05-08T02:03:09.719Z,24.0286
2023-05-08T02:04:10.767Z,24.0407
2023-05-08T02:05:11.868Z,24.0594
2023-05-08T02:06:12.927Z,24.0255
2023-05-08T02:07:14.052Z,24.0360
2023-05-08T02:08:15.155Z,24.0450
2023-05-08T02:09:16.242Z,24.0570
2023-05-08T02:10:25.322Z,24.0943
2023-05-08T02:11:18.431Z,24.1286
2023-05-08T02:12:19.546Z,24.1410
2023-05-08T02:13:20.780Z,24.1237
2023-05-08T02:14:21.741Z,24.0898
2023-05-08T02:15:22.846Z,24.1163
2023-05-08T02:16:23.975Z,24.1217
2023-05-08T02:17:25.060Z,24.0602
2023-05-08T02:18:26.140Z,24.0212
2023-05-08T02:19:27.248Z,24.0284
2023-05-08T02:20:28.418Z,24.0319
2023-05-08T02:21:29.512Z,24.0352
2023-05-08T02:22:30.617Z,24.0453
2023-05-08T02:23:31.725Z,24.0253
2023-05-08T02:24:32.798Z,23.9990
2023-05-08T02:25:33.905Z,24.0405
2023-05-08T02:26:35.016Z,24.0763
2023-05-08T02:27:36.143Z,24.0851
2023-05-08T02:28:37.235Z,24.1044
2023-05-08T02:29:38.329Z,24.0732
2023-05-08T02:30:39.436Z,24.0420
2023-05-08T02:31:40.584Z,24.0329
2023-05-08T02:32:41.656Z,24.0385
2023-05-08T02:33:42.735Z,24.0635
2023-05-08T02:34:54.920Z,24.0222
2023-05-08T02:35:45.933Z,24.0034
2023-05-08T02:36:46.013Z,24.0091
2023-05-08T02:37:47.133Z,23.9945
2023-05-08T02:38:48.220Z,23.9787
2023-05-08T02:39:49.314Z,23.9734
2023-05-08T02:40:50.434Z,23.9744
2023-05-08T02:41:51.542Z,23.9884
2023-05-08T02:42:52.648Z,23.9849
2023-05-08T02:43:53.731Z,24.0068
2023-05-08T02:44:54.853Z,24.0210
2023-05-08T02:45:55.941Z,24.0342
2023-05-08T02:46:57.041Z,23.9916
2023-05-08T02:47:58.138Z,23.9711
2023-05-08T02:48:59.228Z,23.9797
2023-05-08T02:50:00.419Z,24.0066
2023-05-08T02:51:01.417Z,23.9914
2023-05-08T02:52:02.529Z,24.0056
2023-05-08T02:53:03.648Z,24.0031
2023-05-08T02:54:04.734Z,24.0167
2023-05-08T02:55:05.808Z,24.0574
2023-05-08T02:56:06.918Z,24.0309
2023-05-08T02:57:08.011Z,24.0146
2023-05-08T02:58:09.099Z,23.9754
2023-05-08T02:59:10.216Z,23.9836
2023-05-08T03:00:11.483Z,23.9978
2023-05-08T03:01:12.418Z,23.9859
2023-05-08T03:02:13.555Z,23.9953
2023-05-08T03:03:14.669Z,23.9869
2023-05-08T03:04:15.712Z,23.9744
2023-05-08T03:05:16.809Z,23.9988
2023-05-08T03:06:17.899Z,23.9820
2023-05-08T03:07:19.011Z,23.9514
2023-05-08T03:08:20.086Z,23.8727
2023-05-08T03:09:21.228Z,23.8573
2023-05-08T03:10:22.283Z,23.8822
2023-05-08T03:11:23.408Z,23.9315
2023-05-08T03:12:24.485Z,23.9660
2023-05-08T03:13:25.626Z,23.9713
2023-05-08T03:14:26.693Z,23.9604
2023-05-08T03:15:27.779Z,23.9773
2023-05-08T03:16:28.954Z,23.9861
2023-05-08T03:17:30.022Z,24.0081
2023-05-08T03:18:31.078Z,24.0344
2023-05-08T03:19:32.146Z,24.0605
2023-05-08T03:20:33.249Z,24.1054
2023-05-08T03:21:34.386Z,24.0849
2023-05-08T03:22:35.461Z,24.0374
2023-05-08T03:23:36.545Z,24.0763
2023-05-08T03:24:37.665Z,24.0865
2023-05-08T03:25:38.753Z,24.1176
2023-05-08T03:26:39.859Z,24.1165
2023-05-08T03:27:40.985Z,24.1334
2023-05-08T03:28:42.106Z,24.1077
2023-05-08T03:29:43.174Z,24.0580
2023-05-08T03:30:44.301Z,24.0666
2023-05-08T03:31:45.392Z,24.0859
2023-05-08T03:32:46.511Z,24.1011
2023-05-08T03:33:47.590Z,24.0902
2023-05-08T03:34:48.683Z,24.0720
2023-05-08T03:35:49.826Z,24.0701
2023-05-08T03:36:50.885Z,24.0547
2023-05-08T03:37:52.028Z,24.0818
2023-05-08T03:38:53.086Z,24.1032
2023-05-08T03:39:54.202Z,24.0861
2023-05-08T03:40:55.343Z,24.0453
2023-05-08T03:41:56.404Z,23.9945
2023-05-08T03:42:57.541Z,24.0120
2023-05-08T03:43:58.643Z,24.0594
2023-05-08T03:44:59.703Z,24.0563
2023-05-08T03:46:00.805Z,24.0001
2023-05-08T03:47:02.005Z,24.0124
2023-05-08T03:48:03.052Z,24.0539
2023-05-08T03:49:04.142Z,24.0666
2023-05-08T03:50:05.229Z,24.0771
2023-05-08T03:51:06.362Z,24.0668
2023-05-08T03:52:07.438Z,24.0935
2023-05-08T03:53:08.573Z,24.1034
2023-05-08T03:54:09.634Z,24.0956
2023-05-08T03:55:10.763Z,24.0783
2023-05-08T03:56:11.858Z,24.0826
2023-05-08T03:57:12.951Z,24.0584
2023-05-08T03:58:14.078Z,24.0385
2023-05-08T03:59:15.212Z,24.0582
2023-05-08T04:00:16.267Z,24.0849
2023-05-08T04:01:17.405Z,24.0958
2023-05-08T04:02:18.592Z,24.0144
2023-05-08T04:03:19.677Z,24.0186
2023-05-08T04:04:20.785Z,24.0662
2023-05-08T04:05:21.780Z,24.0518
2023-05-08T04:06:22.885Z,24.0438
2023-05-08T04:07:23.961Z,23.9937
2023-05-08T04:08:25.103Z,24.0112
2023-05-08T04:09:26.188Z,24.0340
2023-05-08T04:10:27.280Z,24.0068
2023-05-08T04:11:28.368Z,24.0284
2023-05-08T04:12:29.480Z,24.0210
2023-05-08T04:13:30.830Z,23.9914
2023-05-08T04:14:31.687Z,23.9678
2023-05-08T04:15:32.766Z,23.9475
2023-05-08T04:16:33.909Z,23.9606
2023-05-08T04:17:35.034Z,23.9635
2023-05-08T04:18:36.069Z,23.9857
2023-05-08T04:19:37.177Z,23.9960
2023-05-08T04:20:38.282Z,23.9830
2023-05-08T04:21:39.364Z,23.9606
2023-05-08T04:22:40.481Z,23.9382
2023-05-08T04:23:41.578Z,23.9111
2023-05-08T04:24:42.664Z,23.8711
2023-05-08T04:25:43.755Z,23.8647
2023-05-08T04:26:44.856Z,23.8487
2023-05-08T04:27:45.966Z,23.8438
2023-05-08T04:28:47.083Z,23.8787
2023-05-08T04:29:48.213Z,23.8805
2023-05-08T04:30:49.282Z,23.8766
2023-05-08T04:31:50.405Z,23.8479
2023-05-08T04:32:51.529Z,23.8717
2023-05-08T04:33:52.564Z,23.9179
2023-05-08T04:34:53.658Z,23.8848
2023-05-08T04:35:54.745Z,23.8575
2023-05-08T04:36:55.844Z,23.8789
2023-05-08T04:37:56.965Z,23.8894
2023-05-08T04:38:59.140Z,23.9384
2023-05-08T04:39:59.168Z,23.9754
2023-05-08T04:41:00.286Z,24.0340
2023-05-08T04:42:01.356Z,24.0249
2023-05-08T04:43:02.452Z,23.9916
2023-05-08T04:44:03.561Z,23.9329
2023-05-08T04:45:04.661Z,23.9021
2023-05-08T04:46:05.837Z,23.9547
2023-05-08T04:47:06.834Z,24.0011
2023-05-08T04:48:08.001Z,24.0711
2023-05-08T04:49:09.043Z,24.0974
2023-05-08T04:50:10.126Z,24.0995
2023-05-08T04:51:11.236Z,24.1122
2023-05-08T04:52:12.323Z,24.1011
2023-05-08T04:53:13.440Z,24.0742
2023-05-08T04:54:14.543Z,24.0286
2023-05-08T04:55:15.607Z,23.9871
2023-05-08T04:56:16.721Z,23.9849
2023-05-08T04:57:17.816Z,24.0157
2023-05-08T04:58:18.909Z,24.0317
2023-05-08T04:59:20.009Z,24.0720
2023-05-08T05:00:21.107Z,24.0340
2023-05-08T05:01:22.221Z,24.0580
2023-05-08T05:02:23.306Z,24.1022
2023-05-08T05:03:24.521Z,24.1015
2023-05-08T05:04:25.499Z,24.1120
2023-05-08T05:05:26.595Z,24.1022
2023-05-08T05:06:27.696Z,24.0847
2023-05-08T05:07:28.807Z,24.0740
2023-05-08T05:08:29.910Z,24.1065
2023-05-08T05:09:31.020Z,24.1537
2023-05-08T05:10:32.101Z,24.1529
2023-05-08T05:11:33.189Z,24.1461
2023-05-08T05:12:34.277Z,24.1554
2023-05-08T05:13:35.393Z,24.1143
2023-05-08T05:14:36.523Z,24.0752
2023-05-08T05:15:37.583Z,24.0561
2023-05-08T05:16:38.783Z,24.0539
2023-05-08T05:17:39.817Z,24.0255
2023-05-08T05:18:40.912Z,24.0374
2023-05-08T05:19:42.018Z,24.0775
2023-05-08T05:20:43.094Z,24.0615
2023-05-08T05:21:44.196Z,24.0670
2023-05-08T05:22:45.305Z,24.0978
2023-05-08T05:23:46.386Z,24.1126
2023-05-08T05:24:47.504Z,24.1428
2023-05-08T05:25:48.607Z,24.1549
2023-05-08T05:26:49.704Z,24.1042
2023-05-08T05:27:50.798Z,24.0861
2023-05-08T05:28:51.900Z,24.1155
2023-05-08T05:29:53.010Z,24.1104
2023-05-08T05:30:54.090Z,24.1054
2023-05-08T05:31:55.208Z,24.0923
2023-05-08T05:32:56.327Z,24.0526
2023-05-08T05:33:57.374Z,24.0081
2023-05-08T05:34:58.485Z,23.9668
2023-05-08T05:35:59.576Z,23.9035
2023-05-08T05:37:00.678Z,23.8688
2023-05-08T05:38:01.777Z,23.8670
2023-05-08T05:39:02.883Z,23.8616
2023-05-08T05:40:03.986Z,23.8575
2023-05-08T05:41:05.074Z,23.9056
2023-05-08T05:42:06.193Z,23.9161
2023-05-08T05:43:07.277Z,23.9043
2023-05-08T05:44:08.394Z,23.8766
2023-05-08T05:45:09.489Z,23.8616
2023-05-08T05:46:10.574Z,23.8382
2023-05-08T05:47:11.815Z,23.8173
2023-05-08T05:48:12.902Z,23.7846
2023-05-08T05:49:13.881Z,23.8468
2023-05-08T05:50:15.052Z,23.9327
2023-05-08T05:51:16.093Z,23.9884
2023-05-08T05:52:17.190Z,24.0284
2023-05-08T05:53:18.265Z,24.0278
2023-05-08T05:54:19.357Z,24.0372
2023-05-08T05:55:20.480Z,24.0245
2023-05-08T05:56:21.557Z,23.9935
2023-05-08T05:57:22.661Z,23.9349
2023-05-08T05:58:23.754Z,23.9382
2023-05-08T05:59:24.850Z,23.9744
2023-05-08T06:00:25.947Z,23.9734
2023-05-08T06:01:27.050Z,23.9403
2023-05-08T06:02:28.239Z,23.9237
2023-05-08T06:03:29.308Z,23.9226
2023-05-08T06:04:30.510Z,23.9113
2023-05-08T06:05:31.469Z,23.8904
2023-05-08T06:06:32.551Z,23.8797
2023-05-08T06:07:33.645Z,23.8930
2023-05-08T06:08:34.756Z,23.8881
2023-05-08T06:09:35.848Z,23.9156
2023-05-08T06:10:36.957Z,23.9617
2023-05-08T06:11:38.035Z,23.9647
2023-05-08T06:12:39.212Z,23.9403
2023-05-08T06:13:40.242Z,23.9580
2023-05-08T06:14:41.320Z,24.0177
2023-05-08T06:15:42.452Z,24.0666
2023-05-08T06:16:43.655Z,24.0644
2023-05-08T06:17:44.686Z,24.0218
2023-05-08T06:18:45.724Z,24.0056
2023-05-08T06:19:46.816Z,24.0338
2023-05-08T06:20:48.009Z,24.0192
2023-05-08T06:21:49.096Z,24.0181
2023-05-08T06:22:50.205Z,24.0247
2023-05-08T06:23:51.300Z,24.0689
2023-05-08T06:24:52.393Z,24.1151
2023-05-08T06:25:53.502Z,24.1498
2023-05-08T06:26:54.592Z,24.1644
2023-05-08T06:27:55.694Z,24.1459
2023-05-08T06:28:56.803Z,24.1262
2023-05-08T06:29:57.915Z,24.1130
2023-05-08T06:30:59.065Z,24.0578
2023-05-08T06:32:00.132Z,23.9999
2023-05-08T06:33:01.325Z,23.9742
2023-05-08T06:34:02.271Z,23.9627
2023-05-08T06:35:03.395Z,23.9744
2023-05-08T06:36:04.491Z,23.9988
2023-05-08T06:37:05.579Z,24.0202
2023-05-08T06:38:06.674Z,24.0153
2023-05-08T06:39:07.798Z,23.9861
2023-05-08T06:40:12.694Z,24.0034
2023-05-08T06:41:09.992Z,24.0342
2023-05-08T06:42:11.074Z,24.0418
2023-05-08T06:43:12.170Z,23.9937
2023-05-08T06:44:13.270Z,23.9682
2023-05-08T06:45:14.582Z,23.9349
2023-05-08T06:46:15.555Z,23.9126
2023-05-08T06:47:16.700Z,23.8930
2023-05-08T06:48:17.656Z,23.8861
2023-05-08T06:49:18.774Z,23.9165
2023-05-08T06:50:19.867Z,23.9269
2023-05-08T06:51:20.955Z,23.9200
2023-05-08T06:52:22.049Z,23.9146
2023-05-08T06:53:23.161Z,23.9384
2023-05-08T06:54:24.248Z,23.9806
2023-05-08T06:55:25.366Z,24.0003
2023-05-08T06:56:26.465Z,24.0233
2023-05-08T06:57:27.549Z,24.0561
2023-05-08T06:58:28.645Z,24.0824
2023-05-08T06:59:29.742Z,24.0839
2023-05-08T07:00:30.872Z,24.0617
2023-05-08T07:01:32.006Z,24.0241
2023-05-08T07:02:33.117Z,24.0066
2023-05-08T07:03:34.139Z,24.0537
2023-05-08T07:04:35.285Z,24.0857
2023-05-08T07:05:36.337Z,24.1134
2023-05-08T07:06:37.458Z,24.0894
2023-05-08T07:07:38.540Z,24.0233
2023-05-08T07:08:39.624Z,24.0079
2023-05-08T07:09:40.734Z,24.0200
2023-05-08T07:10:41.845Z,24.0157
2023-05-08T07:11:42.939Z,24.0340
2023-05-08T07:12:44.077Z,24.0506
2023-05-08T07:13:45.145Z,24.0549
2023-05-08T07:14:46.242Z,24.0296
2023-05-08T07:15:47.339Z,24.0114
2023-05-08T07:16:48.458Z,23.9649
2023-05-08T07:17:49.583Z,23.9448
2023-05-08T07:18:50.620Z,23.9506
2023-05-08T07:19:51.719Z,23.9777
2023-05-08T07:20:52.826Z,24.0099
2023-05-08T07:21:53.944Z,24.0122
2023-05-08T07:22:54.987Z,24.0011
2023-05-08T07:23:56.101Z,23.9756
2023-05-08T07:24:57.222Z,23.9682
2023-05-08T07:25:58.285Z,23.9693
2023-05-08T07:26:59.399Z,23.9723
2023-05-08T07:28:01.504Z,23.9879
2023-05-08T07:29:01.573Z,23.9604
2023-05-08T07:30:02.682Z,23.9573
2023-05-08T07:31:03.861Z,23.9818
2023-05-08T07:32:04.954Z,23.9723
2023-05-08T07:33:06.050Z,23.9259
2023-05-08T07:34:07.058Z,23.9204
2023-05-08T07:35:09.752Z,23.8955
2023-05-08T07:36:09.236Z,23.8639
2023-05-08T07:37:10.375Z,23.8756
2023-05-08T07:38:11.455Z,23.8889
2023-05-08T07:39:12.558Z,23.8744
2023-05-08T07:40:13.644Z,23.8458
2023-05-08T07:41:14.783Z,23.8614
2023-05-08T07:42:15.861Z,23.8596
2023-05-08T07:43:16.914Z,23.8522
2023-05-08T07:44:18.060Z,23.8294
2023-05-08T07:45:19.119Z,23.8271
2023-05-08T07:46:20.229Z,23.8887
2023-05-08T07:47:21.322Z,23.9372
2023-05-08T07:48:22.477Z,23.9247
2023-05-08T07:49:23.487Z,23.9237
2023-05-08T07:50:24.573Z,23.9645
2023-05-08T07:51:25.684Z,23.9953
2023-05-08T07:52:26.785Z,24.0352
2023-05-08T07:53:27.854Z,24.0518
2023-05-08T07:54:28.953Z,24.0243
2023-05-08T07:55:30.061Z,23.9625
2023-05-08T07:56:31.142Z,23.9555
2023-05-08T07:57:32.246Z,23.9393
2023-05-08T07:58:33.354Z,23.9549
2023-05-08T07:59:34.458Z,23.9629
2023-05-08T08:00:35.516Z,23.9631
2023-05-08T08:01:36.727Z,23.9764
2023-05-08T08:02:37.845Z,23.9703
2023-05-08T08:03:38.988Z,23.9617
2023-05-08T08:04:40.020Z,23.9426
2023-05-08T08:05:41.030Z,23.9280
2023-05-08T08:06:42.101Z,23.9269
2023-05-08T08:07:43.229Z,23.9428
2023-05-08T08:08:44.298Z,23.9586
2023-05-08T08:09:45.398Z,23.9237
2023-05-08T08:10:46.479Z,23.8939
2023-05-08T08:11:47.583Z,23.9023
2023-05-08T08:12:48.769Z,23.9169
2023-05-08T08:13:49.781Z,23.9551
2023-05-08T08:14:50.875Z,23.9315
2023-05-08T08:15:52.022Z,23.9380
2023-05-08T08:16:53.135Z,23.9992
2023-05-08T08:17:54.239Z,24.0319
2023-05-08T08:18:55.369Z,24.0340
2023-05-08T08:19:56.402Z,24.0188
2023-05-08T08:20:57.482Z,23.9682
2023-05-08T08:21:58.568Z,23.9417
2023-05-08T08:22:59.666Z,23.9590
2023-05-08T08:24:00.759Z,24.0167
2023-05-08T08:25:01.872Z,24.0056
2023-05-08T08:26:02.977Z,23.9686
2023-05-08T08:27:04.062Z,23.9317
2023-05-08T08:28:05.185Z,23.9091
2023-05-08T08:29:06.259Z,23.8711
2023-05-08T08:30:16.695Z,23.8173
2023-05-08T08:31:09.481Z,23.8257
2023-05-08T08:32:09.562Z,23.8292
2023-05-08T08:33:10.761Z,23.8405
2023-05-08T08:34:11.860Z,23.8433
2023-05-08T08:35:13.376Z,23.8616
2023-05-08T08:36:13.973Z,23.8596
2023-05-08T08:37:15.059Z,23.8846
2023-05-08T08:38:16.184Z,23.9060
2023-05-08T08:39:17.262Z,23.9103
2023-05-08T08:40:18.392Z,23.9395
2023-05-08T08:41:19.470Z,23.9795
2023-05-08T08:42:20.596Z,24.0001
2023-05-08T08:43:21.682Z,24.0255
2023-05-08T08:44:22.763Z,24.0068
2023-05-08T08:45:23.877Z,23.9146
2023-05-08T08:46:25.014Z,23.8452
2023-05-08T08:47:26.108Z,23.8327
2023-05-08T08:48:27.170Z,23.8464
2023-05-08T08:49:28.360Z,23.9302
2023-05-08T08:50:29.389Z,24.0079
2023-05-08T08:51:30.474Z,24.0188
2023-05-08T08:52:31.585Z,23.9723
2023-05-08T08:53:32.692Z,23.9360
2023-05-08T08:54:33.770Z,23.9101
2023-05-08T08:55:34.872Z,23.8629
2023-05-08T08:56:36.014Z,23.8438
2023-05-08T08:57:37.099Z,23.8251
2023-05-08T08:58:39.250Z,23.8035
2023-05-08T08:59:39.287Z,23.7897
2023-05-08T09:00:40.395Z,23.7930
2023-05-08T09:01:41.500Z,23.7513
2023-05-08T09:02:42.647Z,23.7975
2023-05-08T09:03:43.799Z,23.8522
2023-05-08T09:04:44.847Z,23.8448
2023-05-08T09:05:45.884Z,23.8561
2023-05-08T09:06:46.968Z,23.8347
2023-05-08T09:07:48.076Z,23.8741
2023-05-08T09:08:49.200Z,23.9271
2023-05-08T09:09:50.270Z,23.9994
2023-05-08T09:10:51.368Z,24.0442
2023-05-08T09:11:52.502Z,24.0648
2023-05-08T09:12:53.590Z,24.0155
2023-05-08T09:13:54.685Z,23.9744
2023-05-08T09:14:55.789Z,23.9651
2023-05-08T09:15:56.895Z,23.9483
2023-05-08T09:16:57.987Z,23.9025
2023-05-08T09:17:59.171Z,23.8957
2023-05-08T09:19:00.184Z,23.9405
2023-05-08T09:20:01.374Z,24.0077
2023-05-08T09:21:02.394Z,24.0372
2023-05-08T09:22:03.493Z,24.1056
2023-05-08T09:23:04.673Z,24.0956
2023-05-08T09:24:05.695Z,24.0752
2023-05-08T09:25:06.785Z,24.1046
2023-05-08T09:26:07.893Z,24.1293
2023-05-08T09:27:08.982Z,24.1627
2023-05-08T09:28:10.078Z,24.1605
2023-05-08T09:29:11.213Z,24.1323
2023-05-08T09:30:12.310Z,24.1163
2023-05-08T09:31:13.402Z,24.1582
2023-05-08T09:32:14.485Z,24.1701
2023-05-08T09:33:15.660Z,24.1459
2023-05-08T09:34:16.675Z,24.1237
2023-05-08T09:35:17.984Z,24.0362
2023-05-08T09:36:18.851Z,24.0360
2023-05-08T09:37:19.963Z,24.0847
2023-05-08T09:38:21.046Z,24.1102
2023-05-08T09:39:22.159Z,24.1196
2023-05-08T09:40:23.287Z,24.1282
2023-05-08T09:41:24.358Z,24.0872
2023-05-08T09:42:25.461Z,24.0284
2023-05-08T09:43:26.562Z,23.9980
2023-05-08T09:44:27.670Z,24.0202
2023-05-08T09:45:28.841Z,24.0668
2023-05-08T09:46:29.887Z,24.0785
2023-05-08T09:47:30.967Z,24.0913
2023-05-08T09:48:32.060Z,24.1019
2023-05-08T09:49:33.148Z,24.1549
2023-05-08T09:50:34.327Z,24.1802
2023-05-08T09:51:35.344Z,24.1389
2023-05-08T09:52:36.497Z,24.1186
2023-05-08T09:53:37.548Z,24.1313
2023-05-08T09:54:38.640Z,24.1837
2023-05-08T09:55:39.729Z,24.2201
2023-05-08T09:56:40.843Z,24.2155
2023-05-08T09:57:41.926Z,24.2607
2023-05-08T09:58:43.074Z,24.2915
2023-05-08T09:59:44.142Z,24.2860
2023-05-08T10:00:45.281Z,24.2745
2023-05-08T10:01:46.345Z,24.2644
2023-05-08T10:02:47.462Z,24.2989
2023-05-08T10:03:48.593Z,24.3230
2023-05-08T10:04:49.685Z,24.3464
2023-05-08T10:05:50.840Z,24.3653
2023-05-08T10:06:52.357Z,24.3624
2023-05-08T10:07:52.960Z,24.3749
2023-05-08T10:08:54.055Z,24.3795
2023-05-08T10:09:55.180Z,24.4246
2023-05-08T10:10:56.245Z,24.4606
2023-05-08T10:11:57.348Z,24.4787
2023-05-08T10:12:58.549Z,24.4390
2023-05-08T10:13:59.541Z,24.4267
2023-05-08T10:15:00.665Z,24.4129
2023-05-08T10:16:01.733Z,24.4191
2023-05-08T10:17:02.921Z,24.4113
2023-05-08T10:18:04.088Z,24.4253
2023-05-08T10:19:05.062Z,24.4438
2023-05-08T10:20:06.170Z,24.4481
2023-05-08T10:21:07.332Z,24.4633
2023-05-08T10:22:08.433Z,24.4815
2023-05-08T10:23:09.523Z,24.4830
2023-05-08T10:24:10.638Z,24.4255
2023-05-08T10:25:11.991Z,24.4162
2023-05-08T10:26:12.840Z,24.4218
2023-05-08T10:27:13.939Z,24.4275
2023-05-08T10:28:15.045Z,24.4162
2023-05-08T10:29:16.150Z,24.4090
2023-05-08T10:30:17.274Z,24.4025
2023-05-08T10:31:18.401Z,24.3823
2023-05-08T10:32:19.434Z,24.3657
2023-05-08T10:33:20.559Z,24.3230
2023-05-08T10:34:21.649Z,24.2648
2023-05-08T10:35:22.754Z,24.1962
2023-05-08T10:36:23.927Z,24.2231
2023-05-08T10:37:24.953Z,24.2252
2023-05-08T10:38:26.075Z,24.2211
2023-05-08T10:39:27.156Z,24.1966
2023-05-08T10:40:28.259Z,24.1936
2023-05-08T10:41:29.361Z,24.2088
2023-05-08T10:42:30.462Z,24.2176
2023-05-08T10:43:31.603Z,24.1971
2023-05-08T10:44:32.673Z,24.1843
2023-05-08T10:45:33.787Z,24.2135
2023-05-08T10:46:34.893Z,24.2361
2023-05-08T10:47:36.023Z,24.2852
2023-05-08T10:48:37.105Z,24.2915
2023-05-08T10:49:38.210Z,24.2895
2023-05-08T10:50:39.321Z,24.3088
2023-05-08T10:51:40.423Z,24.3486
2023-05-08T10:52:41.520Z,24.3244
2023-05-08T10:53:42.620Z,24.3275
2023-05-08T10:54:43.719Z,24.3328
2023-05-08T10:55:44.839Z,24.3287
2023-05-08T10:56:45.933Z,24.3201
2023-05-08T10:57:47.031Z,24.3347
2023-05-08T10:58:48.124Z,24.3869
2023-05-08T10:59:49.223Z,24.3963
2023-05-08T11:00:50.314Z,24.3628
2023-05-08T11:01:51.460Z,24.3704
2023-05-08T11:02:52.560Z,24.3542
2023-05-08T11:03:53.682Z,24.2862
2023-05-08T11:04:54.702Z,24.2457
2023-05-08T11:05:55.819Z,24.2447
2023-05-08T11:06:56.925Z,24.2256
2023-05-08T11:07:58.027Z,24.2012
2023-05-08T11:09:00.612Z,24.1927
2023-05-08T11:10:00.209Z,24.2186
2023-05-08T11:11:01.374Z,24.2311
2023-05-08T11:12:02.428Z,24.2279
2023-05-08T11:13:03.539Z,24.2309
2023-05-08T11:14:04.638Z,24.2653
2023-05-08T11:15:05.744Z,24.2788
2023-05-08T11:16:06.912Z,24.2671
2023-05-08T11:17:07.970Z,24.2872
2023-05-08T11:18:09.175Z,24.2661
2023-05-08T11:19:10.142Z,24.2780
2023-05-08T11:20:11.257Z,24.2883
2023-05-08T11:21:12.358Z,24.2683
2023-05-08T11:22:13.479Z,24.2439
2023-05-08T11:23:14.552Z,24.2404
2023-05-08T11:24:15.681Z,24.1802
2023-05-08T11:25:16.795Z,24.1823
2023-05-08T11:26:17.904Z,24.1738
2023-05-08T11:27:18.990Z,24.1927
2023-05-08T11:28:20.109Z,24.1634
2023-05-08T11:29:21.214Z,24.1174
2023-05-08T11:30:22.324Z,24.0948
2023-05-08T11:31:23.493Z,24.1315
2023-05-08T11:32:24.576Z,24.1354
2023-05-08T11:33:25.648Z,24.1399
2023-05-08T11:34:26.753Z,24.1418
2023-05-08T11:35:27.842Z,24.1595
2023-05-08T11:36:29.008Z,24.1981
2023-05-08T11:37:30.053Z,24.2289
2023-05-08T11:38:31.163Z,24.2535
2023-05-08T11:39:32.275Z,24.2560
2023-05-08T11:40:33.369Z,24.2630
2023-05-08T11:41:34.479Z,24.2601
2023-05-08T11:42:35.578Z,24.2936
2023-05-08T11:43:36.721Z,24.2924
2023-05-08T11:44:37.787Z,24.2850
2023-05-08T11:45:38.903Z,24.3252
2023-05-08T11:46:40.076Z,24.4047
2023-05-08T11:47:41.178Z,24.3975
2023-05-08T11:48:42.222Z,24.3349
2023-05-08T11:49:43.323Z,24.3649
2023-05-08T11:50:44.430Z,24.3739
2023-05-08T11:51:45.559Z,24.4025
2023-05-08T11:52:46.636Z,24.3727
2023-05-08T11:53:47.763Z,24.3620
2023-05-08T11:54:48.857Z,24.4300
2023-05-08T11:55:49.961Z,24.3928
2023-05-08T11:56:51.080Z,24.3663
2023-05-08T11:57:52.193Z,24.3708
2023-05-08T11:58:53.295Z,24.3626
2023-05-08T11:59:54.389Z,24.3745
2023-05-08T12:00:55.553Z,24.3667
2023-05-08T12:02:07.559Z,24.3651
2023-05-08T12:02:58.941Z,24.3760
2023-05-08T12:03:59.087Z,24.4279
2023-05-08T12:05:00.010Z,24.4742
2023-05-08T12:06:01.060Z,24.4320
2023-05-08T12:07:02.148Z,24.4123
2023-05-08T12:08:03.237Z,24.4378
2023-05-08T12:09:04.361Z,24.4411
2023-05-08T12:10:05.492Z,24.4670
2023-05-08T12:11:06.557Z,24.4635
2023-05-08T12:12:07.772Z,24.4752
2023-05-08T12:13:08.808Z,24.5070
2023-05-08T12:14:09.866Z,24.5356
2023-05-08T12:15:10.970Z,24.5282
2023-05-08T12:16:12.149Z,24.5095
2023-05-08T12:17:13.236Z,24.4635
2023-05-08T12:18:14.359Z,24.4725
2023-05-08T12:19:15.396Z,24.4988